sensor_id;sensor_type;location;lat;lon;timestamp;P1;durP1;ratioP1;P2;durP2;ratioP2
22573;SDS011;11453;52.052;20.430;2022-07-31T00:01:57;8.63;;;3.67;;
22573;SDS011;11453;52.052;20.430;2022-07-31T00:04:23;7.80;;;3.47;;
22573;SDS011;11453;52.052;20.430;2022-07-31T00:06:50;8.88;;;3.47;;
22573;SDS011;11453;52.052;20.430;2022-07-31T00:09:16;7.25;;;3.60;;
22573;SDS011;11453;52.052;20.430;2022-07-31T00:11:41;6.72;;;3.55;;
22573;SDS011;11453;52.052;20.430;2022-07-31T00:14:07;6.95;;;3.47;;
22573;SDS011;11453;52.052;20.430;2022-07-31T00:16:33;7.40;;;3.40;;
22573;SDS011;11453;52.052;20.430;2022-07-31T00:18:59;6.00;;;3.58;;
22573;SDS011;11453;52.052;20.430;2022-07-31T00:21:25;7.97;;;3.88;;
22573;SDS011;11453;52.052;20.430;2022-07-31T00:30:39;9.27;;;3.70;;
22573;SDS011;11453;52.052;20.430;2022-07-31T00:33:05;4.65;;;3.05;;
22573;SDS011;11453;52.052;20.430;2022-07-31T00:35:31;6.05;;;3.78;;
22573;SDS011;11453;52.052;20.430;2022-07-31T00:37:56;7.28;;;3.58;;
22573;SDS011;11453;52.052;20.430;2022-07-31T00:40:22;6.07;;;3.47;;
22573;SDS011;11453;52.052;20.430;2022-07-31T00:42:47;6.25;;;3.33;;
22573;SDS011;11453;52.052;20.430;2022-07-31T00:45:13;7.28;;;3.42;;
22573;SDS011;11453;52.052;20.430;2022-07-31T00:47:39;6.75;;;3.53;;
22573;SDS011;11453;52.052;20.430;2022-07-31T00:50:05;5.47;;;3.30;;
22573;SDS011;11453;52.052;20.430;2022-07-31T00:52:31;7.10;;;3.38;;
22573;SDS011;11453;52.052;20.430;2022-07-31T00:54:56;5.88;;;3.63;;
22573;SDS011;11453;52.052;20.430;2022-07-31T00:57:22;7.38;;;3.60;;
22573;SDS011;11453;52.052;20.430;2022-07-31T00:59:47;6.53;;;3.60;;
22573;SDS011;11453;52.052;20.430;2022-07-31T01:02:14;6.78;;;3.28;;
22573;SDS011;11453;52.052;20.430;2022-07-31T01:04:40;7.38;;;3.50;;
22573;SDS011;11453;52.052;20.430;2022-07-31T01:07:05;8.75;;;3.38;;
22573;SDS011;11453;52.052;20.430;2022-07-31T01:09:31;7.20;;;3.75;;
22573;SDS011;11453;52.052;20.430;2022-07-31T01:14:52;6.53;;;3.72;;
22573;SDS011;11453;52.052;20.430;2022-07-31T01:17:21;7.07;;;3.55;;
22573;SDS011;11453;52.052;20.430;2022-07-31T01:19:49;7.38;;;3.80;;
22573;SDS011;11453;52.052;20.430;2022-07-31T01:27:11;6.85;;;3.42;;
22573;SDS011;11453;52.052;20.430;2022-07-31T01:29:46;7.57;;;3.75;;
22573;SDS011;11453;52.052;20.430;2022-07-31T01:32:20;6.93;;;3.58;;
22573;SDS011;11453;52.052;20.430;2022-07-31T01:35:51;6.93;;;3.47;;
22573;SDS011;11453;52.052;20.430;2022-07-31T01:37:52;5.47;;;3.50;;
22573;SDS011;11453;52.052;20.430;2022-07-31T01:40:30;6.72;;;3.75;;
22573;SDS011;11453;52.052;20.430;2022-07-31T01:43:04;7.95;;;3.95;;
22573;SDS011;11453;52.052;20.430;2022-07-31T01:45:32;5.38;;;3.38;;
22573;SDS011;11453;52.052;20.430;2022-07-31T01:47:59;8.77;;;3.58;;
22573;SDS011;11453;52.052;20.430;2022-07-31T01:50:26;7.82;;;3.90;;
22573;SDS011;11453;52.052;20.430;2022-07-31T01:52:53;7.05;;;3.53;;
22573;SDS011;11453;52.052;20.430;2022-07-31T01:55:22;7.82;;;3.47;;
22573;SDS011;11453;52.052;20.430;2022-07-31T01:57:50;6.70;;;3.30;;
22573;SDS011;11453;52.052;20.430;2022-07-31T02:00:16;6.28;;;3.58;;
22573;SDS011;11453;52.052;20.430;2022-07-31T02:02:43;7.13;;;3.47;;
22573;SDS011;11453;52.052;20.430;2022-07-31T02:05:09;7.18;;;3.58;;
22573;SDS011;11453;52.052;20.430;2022-07-31T02:07:36;6.75;;;3.55;;
22573;SDS011;11453;52.052;20.430;2022-07-31T02:10:05;10.35;;;3.78;;
22573;SDS011;11453;52.052;20.430;2022-07-31T02:12:34;5.97;;;3.28;;
22573;SDS011;11453;52.052;20.430;2022-07-31T02:15:03;6.22;;;3.42;;
22573;SDS011;11453;52.052;20.430;2022-07-31T02:17:31;7.35;;;3.63;;
22573;SDS011;11453;52.052;20.430;2022-07-31T02:19:58;6.22;;;2.90;;
22573;SDS011;11453;52.052;20.430;2022-07-31T02:22:25;5.95;;;3.40;;
22573;SDS011;11453;52.052;20.430;2022-07-31T02:24:53;6.50;;;3.70;;
22573;SDS011;11453;52.052;20.430;2022-07-31T02:27:18;6.90;;;3.50;;
22573;SDS011;11453;52.052;20.430;2022-07-31T02:29:45;8.52;;;3.53;;
22573;SDS011;11453;52.052;20.430;2022-07-31T02:32:12;6.40;;;3.55;;
22573;SDS011;11453;52.052;20.430;2022-07-31T02:34:38;6.72;;;3.15;;
22573;SDS011;11453;52.052;20.430;2022-07-31T02:37:05;6.25;;;3.17;;
22573;SDS011;11453;52.052;20.430;2022-07-31T02:39:31;5.47;;;3.40;;
22573;SDS011;11453;52.052;20.430;2022-07-31T02:41:59;7.75;;;3.55;;
22573;SDS011;11453;52.052;20.430;2022-07-31T02:44:26;6.20;;;3.40;;
22573;SDS011;11453;52.052;20.430;2022-07-31T02:46:54;6.60;;;3.58;;
22573;SDS011;11453;52.052;20.430;2022-07-31T02:49:22;7.75;;;3.45;;
22573;SDS011;11453;52.052;20.430;2022-07-31T02:51:48;7.35;;;3.28;;
22573;SDS011;11453;52.052;20.430;2022-07-31T02:54:14;6.72;;;3.45;;
22573;SDS011;11453;52.052;20.430;2022-07-31T02:56:40;8.40;;;4.05;;
22573;SDS011;11453;52.052;20.430;2022-07-31T02:59:07;6.45;;;3.53;;
22573;SDS011;11453;52.052;20.430;2022-07-31T03:01:33;7.68;;;3.72;;
22573;SDS011;11453;52.052;20.430;2022-07-31T03:03:59;5.75;;;3.45;;
22573;SDS011;11453;52.052;20.430;2022-07-31T03:06:25;5.55;;;3.40;;
22573;SDS011;11453;52.052;20.430;2022-07-31T03:08:52;6.53;;;3.80;;
22573;SDS011;11453;52.052;20.430;2022-07-31T03:11:17;9.20;;;3.63;;
22573;SDS011;11453;52.052;20.430;2022-07-31T03:13:43;8.07;;;3.70;;
22573;SDS011;11453;52.052;20.430;2022-07-31T03:16:11;6.20;;;3.97;;
22573;SDS011;11453;52.052;20.430;2022-07-31T03:18:38;7.07;;;4.10;;
22573;SDS011;11453;52.052;20.430;2022-07-31T03:21:05;6.10;;;3.65;;
22573;SDS011;11453;52.052;20.430;2022-07-31T03:23:33;8.55;;;3.90;;
22573;SDS011;11453;52.052;20.430;2022-07-31T03:26:02;8.32;;;4.10;;
22573;SDS011;11453;52.052;20.430;2022-07-31T03:28:29;8.15;;;3.75;;
22573;SDS011;11453;52.052;20.430;2022-07-31T03:30:55;7.07;;;3.80;;
22573;SDS011;11453;52.052;20.430;2022-07-31T03:33:21;7.65;;;3.50;;
22573;SDS011;11453;52.052;20.430;2022-07-31T03:35:47;7.30;;;3.33;;
22573;SDS011;11453;52.052;20.430;2022-07-31T03:38:13;9.50;;;3.78;;
22573;SDS011;11453;52.052;20.430;2022-07-31T03:40:39;7.32;;;3.67;;
22573;SDS011;11453;52.052;20.430;2022-07-31T03:43:04;7.82;;;3.83;;
22573;SDS011;11453;52.052;20.430;2022-07-31T03:45:31;5.97;;;3.55;;
22573;SDS011;11453;52.052;20.430;2022-07-31T03:47:58;6.43;;;3.50;;
22573;SDS011;11453;52.052;20.430;2022-07-31T03:50:25;5.30;;;3.30;;
22573;SDS011;11453;52.052;20.430;2022-07-31T03:52:51;5.45;;;3.40;;
22573;SDS011;11453;52.052;20.430;2022-07-31T03:55:17;6.10;;;3.70;;
22573;SDS011;11453;52.052;20.430;2022-07-31T03:57:42;5.35;;;3.20;;
22573;SDS011;11453;52.052;20.430;2022-07-31T04:00:09;4.78;;;2.90;;
22573;SDS011;11453;52.052;20.430;2022-07-31T04:02:35;6.50;;;3.00;;
22573;SDS011;11453;52.052;20.430;2022-07-31T04:05:01;5.50;;;3.20;;
22573;SDS011;11453;52.052;20.430;2022-07-31T04:07:27;5.32;;;3.35;;
22573;SDS011;11453;52.052;20.430;2022-07-31T04:09:53;4.47;;;3.10;;
22573;SDS011;11453;52.052;20.430;2022-07-31T04:12:19;6.13;;;3.10;;
22573;SDS011;11453;52.052;20.430;2022-07-31T04:14:45;5.60;;;3.08;;
22573;SDS011;11453;52.052;20.430;2022-07-31T04:17:10;4.10;;;2.72;;
22573;SDS011;11453;52.052;20.430;2022-07-31T04:19:36;5.45;;;3.10;;
22573;SDS011;11453;52.052;20.430;2022-07-31T04:22:03;4.82;;;3.00;;
22573;SDS011;11453;52.052;20.430;2022-07-31T04:24:29;4.63;;;2.80;;
22573;SDS011;11453;52.052;20.430;2022-07-31T04:26:55;6.93;;;3.00;;
22573;SDS011;11453;52.052;20.430;2022-07-31T04:29:21;5.25;;;3.08;;
22573;SDS011;11453;52.052;20.430;2022-07-31T04:31:48;5.45;;;3.35;;
22573;SDS011;11453;52.052;20.430;2022-07-31T04:34:14;5.53;;;3.42;;
22573;SDS011;11453;52.052;20.430;2022-07-31T04:36:39;6.78;;;3.30;;
22573;SDS011;11453;52.052;20.430;2022-07-31T04:39:05;5.85;;;3.70;;
22573;SDS011;11453;52.052;20.430;2022-07-31T04:41:31;5.43;;;3.40;;
22573;SDS011;11453;52.052;20.430;2022-07-31T04:43:56;6.28;;;3.20;;
22573;SDS011;11453;52.052;20.430;2022-07-31T04:46:23;5.75;;;3.35;;
22573;SDS011;11453;52.052;20.430;2022-07-31T04:48:49;6.18;;;3.75;;
22573;SDS011;11453;52.052;20.430;2022-07-31T04:51:18;7.35;;;4.00;;
22573;SDS011;11453;52.052;20.430;2022-07-31T04:53:45;5.95;;;3.78;;
22573;SDS011;11453;52.052;20.430;2022-07-31T04:56:12;6.28;;;3.90;;
22573;SDS011;11453;52.052;20.430;2022-07-31T04:58:57;7.30;;;3.95;;
22573;SDS011;11453;52.052;20.430;2022-07-31T05:01:24;7.70;;;3.75;;
22573;SDS011;11453;52.052;20.430;2022-07-31T05:03:50;8.20;;;4.25;;
22573;SDS011;11453;52.052;20.430;2022-07-31T05:06:15;7.93;;;4.38;;
22573;SDS011;11453;52.052;20.430;2022-07-31T05:08:41;6.95;;;4.07;;
22573;SDS011;11453;52.052;20.430;2022-07-31T05:11:07;7.15;;;3.80;;
22573;SDS011;11453;52.052;20.430;2022-07-31T05:13:51;6.30;;;4.22;;
22573;SDS011;11453;52.052;20.430;2022-07-31T05:16:18;6.18;;;3.72;;
22573;SDS011;11453;52.052;20.430;2022-07-31T05:18:45;7.05;;;3.85;;
22573;SDS011;11453;52.052;20.430;2022-07-31T05:21:12;9.38;;;4.00;;
22573;SDS011;11453;52.052;20.430;2022-07-31T05:23:42;7.57;;;4.35;;
22573;SDS011;11453;52.052;20.430;2022-07-31T05:26:08;7.60;;;4.32;;
22573;SDS011;11453;52.052;20.430;2022-07-31T05:28:35;6.65;;;3.65;;
22573;SDS011;11453;52.052;20.430;2022-07-31T05:31:02;5.60;;;3.78;;
22573;SDS011;11453;52.052;20.430;2022-07-31T05:33:29;6.25;;;3.78;;
22573;SDS011;11453;52.052;20.430;2022-07-31T05:35:55;5.95;;;3.70;;
22573;SDS011;11453;52.052;20.430;2022-07-31T05:38:21;5.43;;;3.22;;
22573;SDS011;11453;52.052;20.430;2022-07-31T05:40:47;4.93;;;3.10;;
22573;SDS011;11453;52.052;20.430;2022-07-31T05:43:13;5.72;;;3.10;;
22573;SDS011;11453;52.052;20.430;2022-07-31T05:45:39;5.18;;;2.90;;
22573;SDS011;11453;52.052;20.430;2022-07-31T05:48:04;5.30;;;2.95;;
22573;SDS011;11453;52.052;20.430;2022-07-31T05:50:30;5.65;;;3.10;;
22573;SDS011;11453;52.052;20.430;2022-07-31T05:52:58;4.80;;;3.10;;
22573;SDS011;11453;52.052;20.430;2022-07-31T05:55:24;4.65;;;3.13;;
22573;SDS011;11453;52.052;20.430;2022-07-31T05:57:49;5.45;;;2.80;;
22573;SDS011;11453;52.052;20.430;2022-07-31T06:00:15;4.57;;;2.80;;
22573;SDS011;11453;52.052;20.430;2022-07-31T06:02:41;5.50;;;2.72;;
22573;SDS011;11453;52.052;20.430;2022-07-31T06:05:07;4.32;;;2.80;;
22573;SDS011;11453;52.052;20.430;2022-07-31T06:07:33;3.40;;;2.30;;
22573;SDS011;11453;52.052;20.430;2022-07-31T06:09:59;4.13;;;2.58;;
22573;SDS011;11453;52.052;20.430;2022-07-31T06:12:25;3.42;;;2.15;;
22573;SDS011;11453;52.052;20.430;2022-07-31T06:14:51;3.10;;;2.20;;
22573;SDS011;11453;52.052;20.430;2022-07-31T06:17:17;2.50;;;1.95;;
22573;SDS011;11453;52.052;20.430;2022-07-31T06:19:42;3.85;;;2.25;;
22573;SDS011;11453;52.052;20.430;2022-07-31T06:22:08;4.00;;;2.15;;
22573;SDS011;11453;52.052;20.430;2022-07-31T06:24:34;3.80;;;1.98;;
22573;SDS011;11453;52.052;20.430;2022-07-31T06:27:01;2.70;;;1.77;;
22573;SDS011;11453;52.052;20.430;2022-07-31T06:29:28;4.63;;;1.60;;
22573;SDS011;11453;52.052;20.430;2022-07-31T06:31:54;2.15;;;1.48;;
22573;SDS011;11453;52.052;20.430;2022-07-31T06:34:21;3.78;;;1.75;;
22573;SDS011;11453;52.052;20.430;2022-07-31T06:36:48;1.40;;;1.30;;
22573;SDS011;11453;52.052;20.430;2022-07-31T06:39:14;4.28;;;1.80;;
22573;SDS011;11453;52.052;20.430;2022-07-31T06:41:40;2.53;;;1.48;;
22573;SDS011;11453;52.052;20.430;2022-07-31T06:44:08;1.92;;;1.52;;
22573;SDS011;11453;52.052;20.430;2022-07-31T06:46:35;2.15;;;1.52;;
22573;SDS011;11453;52.052;20.430;2022-07-31T06:49:01;2.00;;;1.70;;
22573;SDS011;11453;52.052;20.430;2022-07-31T06:51:27;1.88;;;1.48;;
22573;SDS011;11453;52.052;20.430;2022-07-31T06:53:52;2.63;;;1.70;;
22573;SDS011;11453;52.052;20.430;2022-07-31T06:56:18;3.60;;;1.80;;
22573;SDS011;11453;52.052;20.430;2022-07-31T06:58:44;2.53;;;1.50;;
22573;SDS011;11453;52.052;20.430;2022-07-31T07:01:10;5.25;;;2.83;;
22573;SDS011;11453;52.052;20.430;2022-07-31T07:03:36;7.38;;;4.13;;
22573;SDS011;11453;52.052;20.430;2022-07-31T07:06:01;4.72;;;2.65;;
22573;SDS011;11453;52.052;20.430;2022-07-31T07:08:27;3.13;;;2.10;;
22573;SDS011;11453;52.052;20.430;2022-07-31T07:10:53;2.67;;;1.70;;
22573;SDS011;11453;52.052;20.430;2022-07-31T07:13:19;3.17;;;1.60;;
22573;SDS011;11453;52.052;20.430;2022-07-31T07:15:45;1.52;;;1.30;;
22573;SDS011;11453;52.052;20.430;2022-07-31T07:18:11;2.45;;;1.20;;
22573;SDS011;11453;52.052;20.430;2022-07-31T07:20:37;2.05;;;1.40;;
22573;SDS011;11453;52.052;20.430;2022-07-31T07:23:03;2.42;;;1.50;;
22573;SDS011;11453;52.052;20.430;2022-07-31T07:25:29;2.55;;;1.35;;
22573;SDS011;11453;52.052;20.430;2022-07-31T07:27:54;1.95;;;1.20;;
22573;SDS011;11453;52.052;20.430;2022-07-31T07:30:23;2.63;;;1.30;;
22573;SDS011;11453;52.052;20.430;2022-07-31T07:32:52;2.83;;;1.40;;
22573;SDS011;11453;52.052;20.430;2022-07-31T07:35:18;2.53;;;1.50;;
22573;SDS011;11453;52.052;20.430;2022-07-31T07:37:44;1.70;;;1.27;;
22573;SDS011;11453;52.052;20.430;2022-07-31T07:40:10;3.25;;;1.73;;
22573;SDS011;11453;52.052;20.430;2022-07-31T07:42:36;1.60;;;1.20;;
22573;SDS011;11453;52.052;20.430;2022-07-31T07:45:01;2.63;;;1.42;;
22573;SDS011;11453;52.052;20.430;2022-07-31T07:47:28;3.08;;;1.50;;
22573;SDS011;11453;52.052;20.430;2022-07-31T07:49:53;1.80;;;1.25;;
22573;SDS011;11453;52.052;20.430;2022-07-31T07:52:19;1.90;;;1.30;;
22573;SDS011;11453;52.052;20.430;2022-07-31T07:54:45;2.25;;;1.30;;
22573;SDS011;11453;52.052;20.430;2022-07-31T07:57:17;1.95;;;1.38;;
22573;SDS011;11453;52.052;20.430;2022-07-31T07:59:44;2.40;;;1.50;;
22573;SDS011;11453;52.052;20.430;2022-07-31T08:02:10;3.22;;;1.70;;
22573;SDS011;11453;52.052;20.430;2022-07-31T08:04:37;2.95;;;1.40;;
22573;SDS011;11453;52.052;20.430;2022-07-31T08:07:03;1.75;;;1.30;;
22573;SDS011;11453;52.052;20.430;2022-07-31T08:09:29;1.70;;;1.25;;
22573;SDS011;11453;52.052;20.430;2022-07-31T08:11:55;2.72;;;1.30;;
22573;SDS011;11453;52.052;20.430;2022-07-31T08:14:21;1.58;;;1.35;;
22573;SDS011;11453;52.052;20.430;2022-07-31T08:16:47;3.00;;;1.70;;
22573;SDS011;11453;52.052;20.430;2022-07-31T08:19:12;2.30;;;1.40;;
22573;SDS011;11453;52.052;20.430;2022-07-31T08:21:38;4.43;;;2.40;;
22573;SDS011;11453;52.052;20.430;2022-07-31T08:24:04;2.50;;;1.50;;
22573;SDS011;11453;52.052;20.430;2022-07-31T08:26:31;2.45;;;1.35;;
22573;SDS011;11453;52.052;20.430;2022-07-31T08:29:16;3.83;;;1.30;;
22573;SDS011;11453;52.052;20.430;2022-07-31T08:31:42;2.28;;;1.23;;
22573;SDS011;11453;52.052;20.430;2022-07-31T08:34:07;1.45;;;1.27;;
22573;SDS011;11453;52.052;20.430;2022-07-31T08:36:33;3.38;;;1.30;;
22573;SDS011;11453;52.052;20.430;2022-07-31T08:38:59;1.38;;;1.00;;
22573;SDS011;11453;52.052;20.430;2022-07-31T08:41:27;2.53;;;1.20;;
22573;SDS011;11453;52.052;20.430;2022-07-31T08:43:53;2.10;;;1.20;;
22573;SDS011;11453;52.052;20.430;2022-07-31T08:46:22;1.70;;;1.20;;
22573;SDS011;11453;52.052;20.430;2022-07-31T08:48:49;1.75;;;1.20;;
22573;SDS011;11453;52.052;20.430;2022-07-31T08:51:18;1.63;;;1.10;;
22573;SDS011;11453;52.052;20.430;2022-07-31T08:53:46;1.67;;;0.90;;
22573;SDS011;11453;52.052;20.430;2022-07-31T08:56:17;3.65;;;1.38;;
22573;SDS011;11453;52.052;20.430;2022-07-31T08:58:44;1.40;;;0.95;;
22573;SDS011;11453;52.052;20.430;2022-07-31T09:01:11;3.00;;;1.38;;
22573;SDS011;11453;52.052;20.430;2022-07-31T09:03:37;1.20;;;1.02;;
22573;SDS011;11453;52.052;20.430;2022-07-31T09:06:03;2.47;;;0.95;;
22573;SDS011;11453;52.052;20.430;2022-07-31T09:08:31;1.98;;;1.10;;
22573;SDS011;11453;52.052;20.430;2022-07-31T09:11:04;2.17;;;1.20;;
22573;SDS011;11453;52.052;20.430;2022-07-31T09:13:32;2.38;;;1.20;;
22573;SDS011;11453;52.052;20.430;2022-07-31T09:15:59;1.65;;;1.00;;
22573;SDS011;11453;52.052;20.430;2022-07-31T09:18:25;1.60;;;0.90;;
22573;SDS011;11453;52.052;20.430;2022-07-31T09:20:54;2.25;;;0.90;;
22573;SDS011;11453;52.052;20.430;2022-07-31T09:23:30;1.83;;;1.05;;
22573;SDS011;11453;52.052;20.430;2022-07-31T09:26:00;1.67;;;1.08;;
22573;SDS011;11453;52.052;20.430;2022-07-31T09:30:57;0.65;;;0.50;;
22573;SDS011;11453;52.052;20.430;2022-07-31T09:33:25;1.10;;;0.70;;
22573;SDS011;11453;52.052;20.430;2022-07-31T09:35:52;1.92;;;1.00;;
22573;SDS011;11453;52.052;20.430;2022-07-31T09:38:18;3.20;;;0.93;;
22573;SDS011;11453;52.052;20.430;2022-07-31T09:40:44;1.02;;;0.73;;
22573;SDS011;11453;52.052;20.430;2022-07-31T09:43:20;0.80;;;0.60;;
22573;SDS011;11453;52.052;20.430;2022-07-31T09:45:58;2.08;;;0.82;;
22573;SDS011;11453;52.052;20.430;2022-07-31T09:48:24;0.95;;;0.77;;
22573;SDS011;11453;52.052;20.430;2022-07-31T09:53:20;1.10;;;0.80;;
22573;SDS011;11453;52.052;20.430;2022-07-31T09:55:53;1.95;;;0.98;;
22573;SDS011;11453;52.052;20.430;2022-07-31T09:58:20;1.48;;;0.90;;
22573;SDS011;11453;52.052;20.430;2022-07-31T10:00:48;1.15;;;0.80;;
22573;SDS011;11453;52.052;20.430;2022-07-31T10:03:16;1.20;;;0.80;;
22573;SDS011;11453;52.052;20.430;2022-07-31T10:05:43;1.27;;;0.73;;
22573;SDS011;11453;52.052;20.430;2022-07-31T10:08:11;2.13;;;0.80;;
22573;SDS011;11453;52.052;20.430;2022-07-31T10:10:38;1.98;;;1.13;;
22573;SDS011;11453;52.052;20.430;2022-07-31T10:13:07;1.73;;;1.05;;
22573;SDS011;11453;52.052;20.430;2022-07-31T10:15:37;1.45;;;1.10;;
22573;SDS011;11453;52.052;20.430;2022-07-31T10:18:04;1.10;;;0.93;;
22573;SDS011;11453;52.052;20.430;2022-07-31T10:20:32;2.70;;;1.77;;
22573;SDS011;11453;52.052;20.430;2022-07-31T10:23:00;1.25;;;1.10;;
22573;SDS011;11453;52.052;20.430;2022-07-31T10:25:40;1.58;;;1.15;;
22573;SDS011;11453;52.052;20.430;2022-07-31T10:28:11;1.58;;;1.17;;
22573;SDS011;11453;52.052;20.430;2022-07-31T10:30:38;1.45;;;1.00;;
22573;SDS011;11453;52.052;20.430;2022-07-31T10:33:04;2.45;;;1.50;;
22573;SDS011;11453;52.052;20.430;2022-07-31T10:35:33;2.55;;;1.52;;
22573;SDS011;11453;52.052;20.430;2022-07-31T10:38:14;2.15;;;1.20;;
22573;SDS011;11453;52.052;20.430;2022-07-31T10:40:54;2.10;;;0.98;;
22573;SDS011;11453;52.052;20.430;2022-07-31T10:43:28;1.15;;;0.95;;
22573;SDS011;11453;52.052;20.430;2022-07-31T10:46:03;1.25;;;1.00;;
22573;SDS011;11453;52.052;20.430;2022-07-31T10:48:29;1.58;;;1.02;;
22573;SDS011;11453;52.052;20.430;2022-07-31T10:51:04;2.70;;;1.40;;
22573;SDS011;11453;52.052;20.430;2022-07-31T10:53:33;1.50;;;1.10;;
22573;SDS011;11453;52.052;20.430;2022-07-31T10:56:01;2.95;;;1.77;;
22573;SDS011;11453;52.052;20.430;2022-07-31T10:58:28;1.35;;;1.20;;
22573;SDS011;11453;52.052;20.430;2022-07-31T11:01:06;1.92;;;1.40;;
22573;SDS011;11453;52.052;20.430;2022-07-31T11:03:36;2.15;;;1.38;;
22573;SDS011;11453;52.052;20.430;2022-07-31T11:06:04;1.92;;;1.30;;
22573;SDS011;11453;52.052;20.430;2022-07-31T11:08:39;2.80;;;1.65;;
22573;SDS011;11453;52.052;20.430;2022-07-31T11:11:12;1.42;;;1.30;;
22573;SDS011;11453;52.052;20.430;2022-07-31T11:13:45;2.45;;;1.30;;
22573;SDS011;11453;52.052;20.430;2022-07-31T11:16:12;1.55;;;1.10;;
22573;SDS011;11453;52.052;20.430;2022-07-31T11:18:38;1.83;;;1.23;;
22573;SDS011;11453;52.052;20.430;2022-07-31T11:21:05;2.42;;;1.40;;
22573;SDS011;11453;52.052;20.430;2022-07-31T11:23:33;2.45;;;1.77;;
22573;SDS011;11453;52.052;20.430;2022-07-31T11:25:59;2.35;;;1.73;;
22573;SDS011;11453;52.052;20.430;2022-07-31T11:28:26;3.42;;;2.00;;
22573;SDS011;11453;52.052;20.430;2022-07-31T11:36:07;2.90;;;1.88;;
22573;SDS011;11453;52.052;20.430;2022-07-31T11:38:34;2.42;;;1.65;;
22573;SDS011;11453;52.052;20.430;2022-07-31T11:41:00;3.60;;;2.10;;
22573;SDS011;11453;52.052;20.430;2022-07-31T11:43:27;3.38;;;1.80;;
22573;SDS011;11453;52.052;20.430;2022-07-31T11:45:53;2.22;;;1.80;;
22573;SDS011;11453;52.052;20.430;2022-07-31T11:48:20;2.28;;;1.90;;
22573;SDS011;11453;52.052;20.430;2022-07-31T11:50:47;2.38;;;1.80;;
22573;SDS011;11453;52.052;20.430;2022-07-31T11:53:15;2.53;;;1.50;;
22573;SDS011;11453;52.052;20.430;2022-07-31T11:58:09;2.40;;;1.70;;
22573;SDS011;11453;52.052;20.430;2022-07-31T12:00:35;1.88;;;1.50;;
22573;SDS011;11453;52.052;20.430;2022-07-31T12:03:01;4.00;;;2.42;;
22573;SDS011;11453;52.052;20.430;2022-07-31T12:05:27;3.85;;;2.22;;
22573;SDS011;11453;52.052;20.430;2022-07-31T12:07:53;3.03;;;1.67;;
22573;SDS011;11453;52.052;20.430;2022-07-31T12:10:19;3.15;;;2.03;;
22573;SDS011;11453;52.052;20.430;2022-07-31T12:12:46;3.10;;;1.90;;
22573;SDS011;11453;52.052;20.430;2022-07-31T12:15:16;2.72;;;1.90;;
22573;SDS011;11453;52.052;20.430;2022-07-31T12:17:44;2.83;;;2.00;;
22573;SDS011;11453;52.052;20.430;2022-07-31T12:20:10;3.15;;;1.77;;
22573;SDS011;11453;52.052;20.430;2022-07-31T12:22:36;3.42;;;2.10;;
22573;SDS011;11453;52.052;20.430;2022-07-31T12:25:02;3.75;;;1.90;;
22573;SDS011;11453;52.052;20.430;2022-07-31T12:27:30;3.85;;;1.80;;
22573;SDS011;11453;52.052;20.430;2022-07-31T12:29:56;2.80;;;1.98;;
22573;SDS011;11453;52.052;20.430;2022-07-31T12:32:23;3.15;;;1.70;;
22573;SDS011;11453;52.052;20.430;2022-07-31T12:34:50;2.78;;;1.83;;
22573;SDS011;11453;52.052;20.430;2022-07-31T12:37:26;2.60;;;1.77;;
22573;SDS011;11453;52.052;20.430;2022-07-31T12:39:53;2.67;;;1.90;;
22573;SDS011;11453;52.052;20.430;2022-07-31T12:44:49;3.40;;;2.03;;
22573;SDS011;11453;52.052;20.430;2022-07-31T12:47:21;4.78;;;2.25;;
22573;SDS011;11453;52.052;20.430;2022-07-31T12:49:48;2.47;;;1.92;;
22573;SDS011;11453;52.052;20.430;2022-07-31T12:52:14;2.72;;;1.90;;
22573;SDS011;11453;52.052;20.430;2022-07-31T12:54:39;2.83;;;1.90;;
22573;SDS011;11453;52.052;20.430;2022-07-31T12:57:06;2.30;;;1.92;;
22573;SDS011;11453;52.052;20.430;2022-07-31T12:59:31;2.47;;;1.70;;
22573;SDS011;11453;52.052;20.430;2022-07-31T13:01:57;3.03;;;1.90;;
22573;SDS011;11453;52.052;20.430;2022-07-31T13:04:23;2.72;;;1.90;;
22573;SDS011;11453;52.052;20.430;2022-07-31T13:06:49;2.75;;;1.95;;
22573;SDS011;11453;52.052;20.430;2022-07-31T13:09:16;2.92;;;2.15;;
22573;SDS011;11453;52.052;20.430;2022-07-31T13:11:42;3.33;;;2.00;;
22573;SDS011;11453;52.052;20.430;2022-07-31T13:14:08;3.10;;;1.90;;
22573;SDS011;11453;52.052;20.430;2022-07-31T13:16:34;2.95;;;1.83;;
22573;SDS011;11453;52.052;20.430;2022-07-31T13:19:00;2.80;;;2.20;;
22573;SDS011;11453;52.052;20.430;2022-07-31T13:21:25;4.07;;;2.20;;
22573;SDS011;11453;52.052;20.430;2022-07-31T13:23:52;3.13;;;1.98;;
22573;SDS011;11453;52.052;20.430;2022-07-31T13:26:18;3.17;;;2.20;;
22573;SDS011;11453;52.052;20.430;2022-07-31T13:28:44;3.47;;;2.13;;
22573;SDS011;11453;52.052;20.430;2022-07-31T13:31:10;2.63;;;1.80;;
22573;SDS011;11453;52.052;20.430;2022-07-31T13:33:35;2.78;;;2.13;;
22573;SDS011;11453;52.052;20.430;2022-07-31T13:36:01;3.33;;;2.33;;
22573;SDS011;11453;52.052;20.430;2022-07-31T13:38:27;3.60;;;1.95;;
22573;SDS011;11453;52.052;20.430;2022-07-31T13:40:53;2.38;;;1.88;;
22573;SDS011;11453;52.052;20.430;2022-07-31T13:43:37;2.80;;;1.95;;
22573;SDS011;11453;52.052;20.430;2022-07-31T13:46:03;3.03;;;2.05;;
22573;SDS011;11453;52.052;20.430;2022-07-31T13:48:29;2.80;;;2.10;;
22573;SDS011;11453;52.052;20.430;2022-07-31T13:50:54;2.38;;;2.00;;
22573;SDS011;11453;52.052;20.430;2022-07-31T13:53:20;3.78;;;1.80;;
22573;SDS011;11453;52.052;20.430;2022-07-31T13:55:46;4.30;;;1.80;;
22573;SDS011;11453;52.052;20.430;2022-07-31T13:58:11;3.08;;;1.90;;
22573;SDS011;11453;52.052;20.430;2022-07-31T14:00:37;3.75;;;1.85;;
22573;SDS011;11453;52.052;20.430;2022-07-31T14:03:04;2.83;;;1.67;;
22573;SDS011;11453;52.052;20.430;2022-07-31T14:05:29;3.15;;;1.80;;
22573;SDS011;11453;52.052;20.430;2022-07-31T14:07:55;2.05;;;1.60;;
22573;SDS011;11453;52.052;20.430;2022-07-31T14:10:22;3.33;;;1.55;;
22573;SDS011;11453;52.052;20.430;2022-07-31T14:12:48;2.38;;;1.77;;
22573;SDS011;11453;52.052;20.430;2022-07-31T14:15:14;2.83;;;1.77;;
22573;SDS011;11453;52.052;20.430;2022-07-31T14:17:42;2.30;;;1.65;;
22573;SDS011;11453;52.052;20.430;2022-07-31T14:20:07;2.22;;;1.77;;
22573;SDS011;11453;52.052;20.430;2022-07-31T14:22:33;3.75;;;2.47;;
22573;SDS011;11453;52.052;20.430;2022-07-31T14:24:59;3.05;;;1.80;;
22573;SDS011;11453;52.052;20.430;2022-07-31T14:27:25;3.92;;;2.08;;
22573;SDS011;11453;52.052;20.430;2022-07-31T14:29:50;2.97;;;2.17;;
22573;SDS011;11453;52.052;20.430;2022-07-31T14:32:16;3.78;;;1.90;;
22573;SDS011;11453;52.052;20.430;2022-07-31T14:34:43;3.15;;;1.50;;
22573;SDS011;11453;52.052;20.430;2022-07-31T14:37:08;3.00;;;1.90;;
22573;SDS011;11453;52.052;20.430;2022-07-31T14:39:34;2.20;;;1.60;;
22573;SDS011;11453;52.052;20.430;2022-07-31T14:42:00;4.63;;;1.90;;
22573;SDS011;11453;52.052;20.430;2022-07-31T14:44:25;2.45;;;1.80;;
22573;SDS011;11453;52.052;20.430;2022-07-31T14:46:51;2.97;;;1.80;;
22573;SDS011;11453;52.052;20.430;2022-07-31T14:49:17;8.60;;;3.03;;
22573;SDS011;11453;52.052;20.430;2022-07-31T14:51:42;3.50;;;2.10;;
22573;SDS011;11453;52.052;20.430;2022-07-31T14:54:10;2.58;;;1.90;;
22573;SDS011;11453;52.052;20.430;2022-07-31T14:56:35;2.55;;;1.75;;
22573;SDS011;11453;52.052;20.430;2022-07-31T14:59:01;3.03;;;1.77;;
22573;SDS011;11453;52.052;20.430;2022-07-31T15:01:27;2.42;;;1.50;;
22573;SDS011;11453;52.052;20.430;2022-07-31T15:03:52;2.63;;;1.95;;